createdAt,value
2017-08-14T00:01:18.569Z,16.00
2017-08-14T00:03:44.788Z,16.00
2017-08-14T00:06:11.009Z,16.00
2017-08-14T00:08:37.358Z,16.00
2017-08-14T00:11:03.600Z,16.00
2017-08-14T00:13:29.763Z,16.00
2017-08-14T00:15:56.023Z,16.00
2017-08-14T00:18:22.290Z,16.00
2017-08-14T00:20:48.467Z,15.90
2017-08-14T00:23:14.648Z,15.80
2017-08-14T00:25:40.863Z,15.80
2017-08-14T00:28:07.075Z,15.80
2017-08-14T00:30:33.244Z,15.80
2017-08-14T00:32:59.466Z,15.80
2017-08-14T00:35:25.667Z,15.80
2017-08-14T00:37:51.863Z,15.80
2017-08-14T00:40:18.068Z,15.80
2017-08-14T00:42:44.268Z,15.80
2017-08-14T00:45:10.438Z,15.80
2017-08-14T00:47:36.738Z,15.80
2017-08-14T00:50:02.946Z,15.70
2017-08-14T00:52:29.178Z,15.70
2017-08-14T00:54:55.367Z,15.70
2017-08-14T00:57:21.592Z,15.60
2017-08-14T00:59:47.794Z,15.50
2017-08-14T01:02:13.961Z,15.60
2017-08-14T01:04:40.128Z,15.60
2017-08-14T01:07:06.350Z,15.60
2017-08-14T01:09:32.576Z,15.60
2017-08-14T01:11:58.792Z,15.60
2017-08-14T01:14:24.951Z,15.50
2017-08-14T01:16:51.120Z,15.60
2017-08-14T01:19:17.295Z,15.60
2017-08-14T01:21:43.455Z,15.60
2017-08-14T01:24:09.671Z,15.50
2017-08-14T01:26:35.857Z,15.40
2017-08-14T01:29:02.042Z,15.50
2017-08-14T01:31:28.272Z,15.50
2017-08-14T01:33:54.459Z,15.50
2017-08-14T01:36:20.615Z,15.50
2017-08-14T01:38:46.800Z,15.50
2017-08-14T01:41:14.574Z,15.40
2017-08-14T01:43:40.788Z,15.40
2017-08-14T01:46:06.950Z,15.40
2017-08-14T01:48:33.379Z,15.40
2017-08-14T01:50:59.567Z,15.30
2017-08-14T01:53:25.739Z,15.30
2017-08-14T01:55:51.936Z,15.30
2017-08-14T01:58:18.172Z,15.30
2017-08-14T02:00:44.373Z,15.40
2017-08-14T02:03:10.550Z,15.30
2017-08-14T02:05:36.918Z,15.30
2017-08-14T02:08:03.118Z,15.20
2017-08-14T02:10:29.349Z,15.20
2017-08-14T02:12:55.537Z,15.30
2017-08-14T02:15:21.720Z,15.20
2017-08-14T02:17:47.935Z,15.30
2017-08-14T02:20:14.099Z,15.30
2017-08-14T02:22:40.247Z,15.30
2017-08-14T02:25:06.585Z,15.30
2017-08-14T02:27:32.739Z,15.20
2017-08-14T02:29:58.943Z,15.20
2017-08-14T02:32:25.174Z,15.20
2017-08-14T02:34:52.765Z,15.20
2017-08-14T02:37:19.007Z,15.10
2017-08-14T02:39:45.167Z,15.10
2017-08-14T02:42:11.351Z,15.10
2017-08-14T02:44:37.555Z,15.10
2017-08-14T02:47:03.768Z,15.10
2017-08-14T02:49:29.960Z,15.10
2017-08-14T02:51:56.339Z,15.10
2017-08-14T02:54:22.564Z,15.10
2017-08-14T02:56:48.755Z,15.10
2017-08-14T02:59:14.919Z,15.10
2017-08-14T03:01:41.231Z,15.10
2017-08-14T03:04:07.595Z,15.10
2017-08-14T03:06:33.833Z,15.10
2017-08-14T03:09:00.040Z,15.10
2017-08-14T03:11:26.400Z,15.10
2017-08-14T03:13:52.654Z,15.10
2017-08-14T03:16:18.874Z,15.10
2017-08-14T03:18:45.043Z,15.10
2017-08-14T03:21:11.196Z,15.10
2017-08-14T03:23:37.374Z,15.10
2017-08-14T03:26:03.516Z,15.10
2017-08-14T03:28:29.695Z,15.10
2017-08-14T03:30:55.847Z,15.10
2017-08-14T03:33:22.024Z,15.00
2017-08-14T03:35:48.178Z,15.00
2017-08-14T03:38:14.335Z,15.00
2017-08-14T03:40:40.532Z,15.00
2017-08-14T03:43:06.690Z,15.00
2017-08-14T03:45:32.877Z,15.10
2017-08-14T03:47:59.072Z,15.00
2017-08-14T03:50:25.250Z,15.00
2017-08-14T03:52:51.413Z,15.00
2017-08-14T03:55:17.647Z,15.00
2017-08-14T03:57:43.866Z,15.00
2017-08-14T04:00:10.173Z,15.00
2017-08-14T04:02:36.374Z,15.00
2017-08-14T04:05:02.595Z,15.00
2017-08-14T04:07:28.793Z,15.00
2017-08-14T04:09:54.944Z,15.00
2017-08-14T04:12:21.156Z,14.90
2017-08-14T04:14:47.338Z,15.00
2017-08-14T04:17:13.520Z,15.00
2017-08-14T04:19:39.671Z,14.90
2017-08-14T04:22:05.888Z,15.00
2017-08-14T04:24:32.096Z,14.90
2017-08-14T04:26:58.352Z,14.90
2017-08-14T04:29:24.597Z,14.90
2017-08-14T04:31:50.779Z,14.90
2017-08-14T04:34:18.063Z,14.90
2017-08-14T04:36:44.231Z,14.90
2017-08-14T04:39:10.386Z,14.90
2017-08-14T04:41:36.559Z,15.00
2017-08-14T04:44:02.780Z,14.90
2017-08-14T04:46:28.955Z,14.90
2017-08-14T04:48:55.121Z,14.90
2017-08-14T04:51:21.291Z,14.90
2017-08-14T04:53:47.450Z,14.90
2017-08-14T04:56:13.608Z,14.90
2017-08-14T04:58:39.769Z,14.90
2017-08-14T05:01:05.932Z,14.90
2017-08-14T05:03:32.101Z,15.00
2017-08-14T05:05:58.267Z,14.90
2017-08-14T05:08:24.429Z,15.00
2017-08-14T05:10:50.611Z,14.90
2017-08-14T05:13:16.820Z,15.00
2017-08-14T05:15:45.322Z,15.00
2017-08-14T05:18:11.639Z,15.00
2017-08-14T05:20:37.811Z,15.10
2017-08-14T05:23:04.023Z,15.10
2017-08-14T05:25:30.175Z,15.10
2017-08-14T05:27:56.418Z,15.20
2017-08-14T05:30:22.789Z,15.20
2017-08-14T05:32:48.950Z,15.20
2017-08-14T05:35:15.151Z,15.20
2017-08-14T05:37:41.536Z,15.30
2017-08-14T05:40:07.759Z,15.30
2017-08-14T05:42:33.978Z,15.30
2017-08-14T05:45:00.424Z,15.40
2017-08-14T05:47:26.616Z,15.40
2017-08-14T05:49:52.811Z,15.50
2017-08-14T05:52:19.211Z,15.60
2017-08-14T05:54:45.442Z,15.60
2017-08-14T05:57:11.663Z,15.60
2017-08-14T05:59:37.889Z,15.60
2017-08-14T06:02:04.072Z,15.60
2017-08-14T06:04:30.295Z,15.70
2017-08-14T06:06:56.539Z,15.60
2017-08-14T06:09:22.768Z,15.80
2017-08-14T06:11:49.011Z,15.80
2017-08-14T06:14:16.269Z,15.90
2017-08-14T06:16:49.767Z,16.00
2017-08-14T06:19:16.077Z,16.00
2017-08-14T06:21:42.522Z,16.10
2017-08-14T06:24:20.029Z,16.00
2017-08-14T06:26:46.283Z,16.10
2017-08-14T06:29:12.555Z,16.10
2017-08-14T06:31:38.791Z,16.20
2017-08-14T06:34:04.955Z,16.20
2017-08-14T06:36:31.151Z,16.20
2017-08-14T06:39:10.215Z,16.20
2017-08-14T06:41:36.503Z,16.20
2017-08-14T06:44:02.678Z,16.20
2017-08-14T06:46:28.839Z,16.20
2017-08-14T06:51:31.072Z,16.40
2017-08-14T06:53:57.248Z,16.50
2017-08-14T06:56:23.716Z,16.60
2017-08-14T06:58:49.919Z,16.70
2017-08-14T07:01:16.046Z,16.70
2017-08-14T07:03:42.226Z,16.80
2017-08-14T07:06:08.384Z,16.80
2017-08-14T07:08:34.740Z,16.80
2017-08-14T07:11:00.898Z,17.00
2017-08-14T07:13:27.035Z,17.10
2017-08-14T07:15:53.286Z,17.20
2017-08-14T07:18:37.158Z,17.20
2017-08-14T07:21:03.389Z,17.30
2017-08-14T07:23:29.655Z,17.30
2017-08-14T07:25:55.831Z,17.30
2017-08-14T07:28:22.157Z,17.40
2017-08-14T07:30:49.303Z,17.40
2017-08-14T07:33:22.232Z,17.50
2017-08-14T07:35:48.445Z,17.60
2017-08-14T07:38:14.675Z,17.70
2017-08-14T07:40:40.948Z,17.80
2017-08-14T07:43:07.824Z,17.90
2017-08-14T07:45:35.584Z,17.90
2017-08-14T07:48:01.775Z,18.00
2017-08-14T07:50:28.022Z,18.10
2017-08-14T07:52:54.258Z,18.10
2017-08-14T07:55:20.474Z,18.20
2017-08-14T07:57:46.629Z,18.30
2017-08-14T08:00:12.815Z,18.30
2017-08-14T08:02:39.865Z,18.40
2017-08-14T08:05:06.031Z,18.50
2017-08-14T08:07:32.299Z,18.60
2017-08-14T08:09:58.499Z,18.70
2017-08-14T08:12:24.898Z,18.80
2017-08-14T08:14:51.100Z,18.90
2017-08-14T08:17:17.335Z,19.00
2017-08-14T08:19:43.499Z,19.00
2017-08-14T08:22:11.067Z,19.00
2017-08-14T08:24:37.236Z,19.10
2017-08-14T08:27:03.740Z,19.20
2017-08-14T08:29:29.909Z,19.20
2017-08-14T08:31:56.076Z,19.40
2017-08-14T08:34:22.591Z,19.50
2017-08-14T08:36:48.859Z,19.60
2017-08-14T08:39:14.995Z,19.70
2017-08-14T08:41:41.185Z,19.80
2017-08-14T08:44:07.580Z,19.80
2017-08-14T08:46:33.767Z,20.00
2017-08-14T08:49:00.063Z,20.10
2017-08-14T08:51:26.240Z,20.20
2017-08-14T08:53:52.392Z,20.30
2017-08-14T08:56:18.536Z,20.30
2017-08-14T08:58:44.714Z,20.50
2017-08-14T09:03:46.843Z,20.50
2017-08-14T09:06:13.035Z,20.50
2017-08-14T09:08:39.253Z,20.60
2017-08-14T09:11:05.412Z,20.60
2017-08-14T09:13:33.713Z,20.60
2017-08-14T09:15:59.975Z,20.60
2017-08-14T09:18:26.323Z,20.60
2017-08-14T09:20:52.523Z,20.50
2017-08-14T09:23:18.899Z,20.50
2017-08-14T09:25:45.117Z,20.50
2017-08-14T09:28:12.305Z,20.50
2017-08-14T09:30:38.597Z,20.50
2017-08-14T09:33:04.896Z,20.50
2017-08-14T09:35:31.084Z,20.50
2017-08-14T09:37:58.857Z,20.50
2017-08-14T09:40:25.051Z,20.60
2017-08-14T09:42:51.306Z,20.70
2017-08-14T09:45:22.379Z,20.80
2017-08-14T09:47:48.627Z,21.00
2017-08-14T09:50:14.781Z,21.20
2017-08-14T09:52:41.035Z,21.30
2017-08-14T09:55:07.167Z,21.40
2017-08-14T09:57:33.363Z,21.50
2017-08-14T09:59:59.612Z,21.60
2017-08-14T10:02:25.781Z,21.70
2017-08-14T10:04:51.947Z,21.80
2017-08-14T10:07:19.645Z,21.90
2017-08-14T10:09:45.823Z,21.90
2017-08-14T10:12:11.994Z,22.00
2017-08-14T10:14:38.232Z,22.20
2017-08-14T10:17:05.995Z,22.20
2017-08-14T10:19:32.287Z,22.30
2017-08-14T10:21:58.500Z,22.50
2017-08-14T10:24:24.652Z,22.60
2017-08-14T10:26:50.884Z,22.70
2017-08-14T10:29:17.321Z,22.80
2017-08-14T10:31:44.761Z,23.00
2017-08-14T10:34:11.096Z,23.20
2017-08-14T10:36:37.263Z,23.30
2017-08-14T10:39:04.649Z,23.40
2017-08-14T10:41:30.832Z,23.50
2017-08-14T10:43:57.084Z,23.60
2017-08-14T10:46:23.403Z,23.70
2017-08-14T10:48:49.677Z,23.70
2017-08-14T10:51:15.925Z,23.70
2017-08-14T10:53:42.090Z,24.00
2017-08-14T10:56:08.367Z,24.10
2017-08-14T10:58:35.765Z,24.30
2017-08-14T11:01:02.014Z,24.40
2017-08-14T11:03:28.190Z,24.50
2017-08-14T11:05:54.476Z,24.50
2017-08-14T11:08:20.616Z,24.70
2017-08-14T11:10:46.840Z,24.80
2017-08-14T11:13:13.021Z,24.80
2017-08-14T11:15:39.210Z,24.80
2017-08-14T11:18:05.427Z,24.90
2017-08-14T11:20:31.572Z,25.00
2017-08-14T11:22:57.995Z,25.20
2017-08-14T11:25:24.153Z,25.20
2017-08-14T11:27:50.337Z,25.20
2017-08-14T11:30:16.597Z,25.20
2017-08-14T11:32:42.863Z,25.40
2017-08-14T11:35:09.167Z,25.50
2017-08-14T11:37:35.404Z,25.60
2017-08-14T11:40:01.600Z,25.70
2017-08-14T11:42:27.793Z,25.50
2017-08-14T11:44:53.995Z,25.60
2017-08-14T11:47:20.275Z,25.50
2017-08-14T11:49:46.429Z,25.30
2017-08-14T11:52:12.635Z,25.20
2017-08-14T11:54:38.906Z,25.20
2017-08-14T11:57:05.225Z,25.20
2017-08-14T11:59:31.479Z,25.30
2017-08-14T12:01:57.679Z,25.20
2017-08-14T12:04:23.900Z,25.30
2017-08-14T12:06:50.116Z,25.40
2017-08-14T12:09:16.316Z,25.40
2017-08-14T12:11:42.677Z,25.40
2017-08-14T12:14:09.783Z,25.20
2017-08-14T12:16:40.158Z,25.30
2017-08-14T12:19:06.380Z,25.40
2017-08-14T12:21:33.112Z,25.40
2017-08-14T12:23:59.278Z,25.40
2017-08-14T12:26:25.419Z,25.60
2017-08-14T12:28:51.658Z,26.00
2017-08-14T12:31:17.843Z,26.50
2017-08-14T12:33:44.036Z,26.70
2017-08-14T12:36:10.228Z,27.20
2017-08-14T12:38:36.406Z,27.20
2017-08-14T12:41:02.570Z,27.40
2017-08-14T12:43:28.717Z,27.60
2017-08-14T12:45:55.000Z,28.00
2017-08-14T12:48:21.167Z,28.40
2017-08-14T12:50:47.396Z,28.80
2017-08-14T12:53:13.588Z,28.90
2017-08-14T12:55:39.726Z,29.10
2017-08-14T12:58:05.847Z,29.30
2017-08-14T13:00:32.064Z,29.40
2017-08-14T13:02:58.228Z,29.60
2017-08-14T13:05:24.419Z,29.50
2017-08-14T13:07:50.547Z,29.00
2017-08-14T13:10:16.768Z,28.70
2017-08-14T13:12:42.936Z,28.80
2017-08-14T13:15:09.362Z,28.60
2017-08-14T13:17:35.528Z,29.00
2017-08-14T13:20:01.685Z,29.30
2017-08-14T13:22:27.847Z,28.90
2017-08-14T13:24:54.007Z,29.10
2017-08-14T13:27:20.186Z,29.30
2017-08-14T13:29:46.319Z,29.40
2017-08-14T13:32:12.471Z,29.40
2017-08-14T13:34:38.644Z,29.30
2017-08-14T13:37:04.868Z,29.30
2017-08-14T13:39:31.044Z,29.70
2017-08-14T13:41:57.247Z,29.80
2017-08-14T13:44:23.463Z,29.70
2017-08-14T13:46:49.658Z,29.60
2017-08-14T13:49:15.888Z,29.30
2017-08-14T13:51:42.132Z,29.00
2017-08-14T13:54:08.373Z,28.50
2017-08-14T13:56:34.636Z,28.50
2017-08-14T13:59:00.787Z,28.50
2017-08-14T14:01:26.955Z,28.50
2017-08-14T14:03:53.305Z,28.60
2017-08-14T14:06:19.464Z,28.50
2017-08-14T14:08:45.623Z,28.40
2017-08-14T14:11:11.790Z,28.20
2017-08-14T14:13:37.977Z,28.00
2017-08-14T14:16:04.151Z,27.70
2017-08-14T14:18:30.350Z,27.80
2017-08-14T14:20:56.498Z,27.70
2017-08-14T14:23:22.835Z,27.60
2017-08-14T14:25:49.014Z,27.60
2017-08-14T14:28:15.197Z,27.50
2017-08-14T14:30:41.406Z,27.40
2017-08-14T14:33:07.575Z,27.40
2017-08-14T14:35:33.701Z,27.40
2017-08-14T14:37:59.887Z,27.40
2017-08-14T14:40:26.031Z,27.40
2017-08-14T14:42:52.331Z,27.20
2017-08-14T14:45:18.504Z,27.20
2017-08-14T14:47:44.747Z,27.10
2017-08-14T14:50:10.920Z,27.20
2017-08-14T14:52:37.125Z,27.00
2017-08-14T14:55:03.375Z,26.90
2017-08-14T14:57:29.558Z,26.90
2017-08-14T14:59:55.779Z,26.90
2017-08-14T15:02:21.951Z,26.80
2017-08-14T15:04:48.229Z,26.80
2017-08-14T15:07:14.385Z,26.80
2017-08-14T15:09:40.568Z,26.70
2017-08-14T15:12:06.739Z,26.70
2017-08-14T15:14:32.912Z,26.70
2017-08-14T15:16:59.881Z,26.60
2017-08-14T15:19:26.235Z,26.70
2017-08-14T15:21:52.415Z,26.60
2017-08-14T15:24:18.611Z,26.60
2017-08-14T15:26:45.819Z,26.60
2017-08-14T15:29:12.027Z,26.60
2017-08-14T15:31:38.270Z,26.50
2017-08-14T15:34:04.444Z,26.50
2017-08-14T15:36:30.659Z,26.50
2017-08-14T15:38:56.878Z,26.50
2017-08-14T15:41:23.151Z,26.40
2017-08-14T15:43:49.281Z,26.50
2017-08-14T15:46:15.533Z,26.50
2017-08-14T15:48:41.692Z,26.50
2017-08-14T15:51:07.895Z,26.40
2017-08-14T15:53:34.039Z,26.50
2017-08-14T15:56:00.331Z,26.50
2017-08-14T15:58:26.500Z,26.40
2017-08-14T16:00:52.702Z,26.40
2017-08-14T16:03:18.860Z,26.40
2017-08-14T16:05:45.010Z,26.40
2017-08-14T16:08:11.240Z,26.40
2017-08-14T16:10:37.404Z,26.30
2017-08-14T16:13:03.583Z,26.40
2017-08-14T16:15:29.774Z,26.40
2017-08-14T16:17:56.275Z,26.40
2017-08-14T16:20:22.482Z,26.40
2017-08-14T16:22:48.642Z,26.40
2017-08-14T16:25:14.798Z,26.40
2017-08-14T16:27:40.935Z,26.40
2017-08-14T16:30:07.070Z,26.40
2017-08-14T16:32:33.579Z,26.40
2017-08-14T16:34:59.754Z,26.30
2017-08-14T16:37:25.923Z,26.40
2017-08-14T16:39:52.095Z,26.40
2017-08-14T16:42:18.353Z,26.30
2017-08-14T16:44:44.544Z,26.30
2017-08-14T16:47:10.729Z,26.20
2017-08-14T16:49:36.923Z,26.20
2017-08-14T16:52:06.520Z,26.10
2017-08-14T16:54:32.708Z,26.10
2017-08-14T16:56:58.961Z,26.10
2017-08-14T16:59:25.227Z,26.10
2017-08-14T17:02:00.165Z,26.00
2017-08-14T17:04:26.388Z,25.90
2017-08-14T17:06:52.551Z,25.90
2017-08-14T17:09:18.756Z,25.90
2017-08-14T17:11:44.920Z,25.90
2017-08-14T17:14:11.083Z,25.80
2017-08-14T17:16:37.198Z,25.80
2017-08-14T17:19:03.433Z,25.80
2017-08-14T17:21:31.969Z,25.70
2017-08-14T17:23:58.190Z,25.60
2017-08-14T17:26:24.376Z,25.50
2017-08-14T17:28:50.549Z,25.50
2017-08-14T17:31:16.750Z,25.30
2017-08-14T17:33:42.887Z,25.20
2017-08-14T17:36:09.063Z,25.10
2017-08-14T17:38:35.242Z,25.10
2017-08-14T17:41:01.412Z,25.00
2017-08-14T17:43:27.718Z,25.00
2017-08-14T17:45:53.906Z,24.90
2017-08-14T17:48:20.143Z,24.80
2017-08-14T17:50:46.312Z,24.80
2017-08-14T17:53:12.668Z,24.70
2017-08-14T17:55:38.926Z,24.70
2017-08-14T17:58:05.093Z,24.60
2017-08-14T18:00:31.503Z,24.60
2017-08-14T18:02:59.645Z,24.60
2017-08-14T18:05:25.855Z,24.50
2017-08-14T18:07:52.028Z,24.50
2017-08-14T18:10:18.211Z,24.40
2017-08-14T18:12:44.383Z,24.30
2017-08-14T18:15:10.645Z,24.30
2017-08-14T18:17:36.822Z,24.20
2017-08-14T18:20:02.992Z,24.10
2017-08-14T18:22:30.145Z,23.90
2017-08-14T18:24:56.909Z,23.80
2017-08-14T18:27:23.131Z,23.80
2017-08-14T18:29:49.339Z,23.80
2017-08-14T18:32:15.541Z,23.70
2017-08-14T18:34:41.728Z,23.60
2017-08-14T18:37:07.912Z,23.60
2017-08-14T18:39:34.051Z,23.40
2017-08-14T18:42:00.422Z,23.40
2017-08-14T18:44:26.592Z,23.30
2017-08-14T18:46:52.789Z,23.20
2017-08-14T18:49:19.116Z,23.10
2017-08-14T18:51:45.304Z,23.00
2017-08-14T18:54:11.447Z,23.00
2017-08-14T18:56:37.731Z,22.90
2017-08-14T18:59:03.955Z,22.90
2017-08-14T19:01:30.123Z,22.80
2017-08-14T19:03:56.362Z,22.70
2017-08-14T19:06:22.508Z,22.60
2017-08-14T19:08:50.839Z,22.50
2017-08-14T19:11:14.875Z,22.50
2017-08-14T19:13:41.076Z,22.40
2017-08-14T19:16:07.356Z,22.40
2017-08-14T19:18:33.521Z,22.30
2017-08-14T19:20:59.691Z,22.30
2017-08-14T19:23:26.936Z,22.20
2017-08-14T19:25:53.171Z,22.10
2017-08-14T19:28:19.503Z,22.00
2017-08-14T19:30:45.630Z,21.90
2017-08-14T19:33:11.770Z,21.80
2017-08-14T19:35:37.925Z,21.80
2017-08-14T19:38:04.132Z,21.80
2017-08-14T19:40:30.343Z,21.70
2017-08-14T19:42:56.470Z,21.70
2017-08-14T19:45:22.615Z,21.60
2017-08-14T19:47:48.754Z,21.60
2017-08-14T19:50:14.886Z,21.50
2017-08-14T19:52:41.018Z,21.50
2017-08-14T19:55:07.174Z,21.40
2017-08-14T19:57:33.323Z,21.30
2017-08-14T19:59:59.482Z,21.30
2017-08-14T20:02:25.605Z,21.20
2017-08-14T20:04:51.815Z,21.20
2017-08-14T20:07:17.953Z,21.20
2017-08-14T20:09:44.103Z,21.10
2017-08-14T20:12:10.261Z,21.00
2017-08-14T20:14:36.425Z,21.00
2017-08-14T20:17:02.569Z,21.00
2017-08-14T20:19:28.957Z,20.90
2017-08-14T20:21:55.100Z,20.80
2017-08-14T20:24:21.227Z,20.80
2017-08-14T20:26:47.388Z,20.70
2017-08-14T20:29:13.523Z,20.70
2017-08-14T20:31:39.658Z,20.60
2017-08-14T20:34:05.828Z,20.60
2017-08-14T20:36:31.979Z,20.50
2017-08-14T20:38:58.139Z,20.50
2017-08-14T20:41:24.283Z,20.40
2017-08-14T20:43:50.426Z,20.40
2017-08-14T20:46:16.566Z,20.40
2017-08-14T20:48:42.731Z,20.40
2017-08-14T20:51:09.142Z,20.40
2017-08-14T20:53:35.276Z,20.30
2017-08-14T20:56:01.446Z,20.30
2017-08-14T20:58:27.618Z,20.30
2017-08-14T21:00:54.542Z,20.20
2017-08-14T21:03:20.712Z,20.20
2017-08-14T21:05:53.761Z,20.20
2017-08-14T21:08:20.080Z,20.10
2017-08-14T21:10:50.202Z,20.10
2017-08-14T21:13:16.423Z,20.00
2017-08-14T21:15:42.681Z,20.00
2017-08-14T21:18:08.930Z,19.90
2017-08-14T21:20:37.211Z,19.90
2017-08-14T21:23:03.363Z,19.90
2017-08-14T21:25:29.513Z,19.90
2017-08-14T21:27:55.698Z,19.80
2017-08-14T21:30:23.503Z,19.80
2017-08-14T21:32:50.051Z,19.80
2017-08-14T21:35:16.492Z,19.70
2017-08-14T21:37:43.445Z,19.70
2017-08-14T21:40:09.640Z,19.70
2017-08-14T21:42:35.807Z,19.70
2017-08-14T21:45:01.985Z,19.70
2017-08-14T21:47:28.127Z,19.60
2017-08-14T21:49:54.371Z,19.60
2017-08-14T21:52:20.640Z,19.60
2017-08-14T21:54:46.807Z,19.60
2017-08-14T21:57:14.455Z,19.50
2017-08-14T21:59:40.783Z,19.50
2017-08-14T22:02:06.931Z,19.50
2017-08-14T22:04:33.215Z,19.40
2017-08-14T22:06:59.355Z,19.50
2017-08-14T22:09:25.564Z,19.50
2017-08-14T22:11:51.680Z,19.50
2017-08-14T22:14:17.864Z,19.40
2017-08-14T22:16:44.014Z,19.50
2017-08-14T22:19:10.195Z,19.40
2017-08-14T22:21:36.331Z,19.40
2017-08-14T22:24:02.516Z,19.40
2017-08-14T22:26:28.694Z,19.40
2017-08-14T22:28:54.823Z,19.40
2017-08-14T22:31:20.978Z,19.40
2017-08-14T22:33:47.138Z,19.20
2017-08-14T22:36:13.321Z,19.20
2017-08-14T22:38:39.465Z,19.20
2017-08-14T22:41:05.635Z,19.20
2017-08-14T22:43:31.791Z,19.30
2017-08-14T22:45:57.946Z,19.20
2017-08-14T22:48:24.138Z,19.20
2017-08-14T22:50:50.300Z,19.10
2017-08-14T22:53:16.439Z,19.10
2017-08-14T22:55:42.578Z,19.00
2017-08-14T22:58:08.707Z,19.00
2017-08-14T23:00:34.895Z,19.00
2017-08-14T23:03:01.051Z,18.90
2017-08-14T23:05:27.227Z,18.90
2017-08-14T23:07:53.379Z,18.80
2017-08-14T23:10:19.518Z,18.80
2017-08-14T23:12:45.659Z,18.70
2017-08-14T23:15:11.815Z,18.70
2017-08-14T23:17:37.994Z,18.70
2017-08-14T23:20:04.143Z,18.60
2017-08-14T23:22:33.198Z,18.60
2017-08-14T23:24:59.367Z,18.50
2017-08-14T23:27:25.539Z,18.60
2017-08-14T23:29:51.677Z,18.40
2017-08-14T23:32:17.865Z,18.50
2017-08-14T23:34:44.035Z,18.40
2017-08-14T23:37:10.189Z,18.30
2017-08-14T23:39:36.326Z,18.40
2017-08-14T23:42:02.484Z,18.40
2017-08-14T23:44:28.627Z,18.30
2017-08-14T23:46:54.775Z,18.30
2017-08-14T23:49:20.919Z,18.30
2017-08-14T23:51:47.091Z,18.20
2017-08-14T23:54:13.240Z,18.30
2017-08-14T23:56:39.448Z,18.20
2017-08-14T23:59:05.618Z,18.10
